Time;durP1;ratioP1;P1;durP2;ratioP2;P2;SDS_P1;SDS_P2;PMS_P1;PMS_P2;Temp;Humidity;BMP_temperature;BMP_pressure;BME280_temperature;BME280_humidity;BME280_pressure;Samples;Min_cycle;Max_cycle;Signal;HPM_P1;HPM_P2
2021/04/03 00:02:13;;;;;;;14.00;4.53;;;;;;;;;;5094876;28;20036;-75
2021/04/03 00:04:38;;;;;;;12.52;5.68;;;;;;;;;;5095925;28;20105;-75
2021/04/03 00:07:04;;;;;;;12.90;4.60;;;;;;;;;;5095339;28;20109;-75
2021/04/03 00:09:30;;;;;;;19.95;5.13;;;;;;;;;;5096476;28;20039;-75
2021/04/03 00:11:55;;;;;;;24.10;5.30;;;;;;;;;;5094681;28;20043;-75
2021/04/03 00:14:20;;;;;;;21.25;5.93;;;;;;;;;;5095764;28;20047;-75
2021/04/03 00:16:46;;;;;;;16.98;4.72;;;;;;;;;;5095266;28;20047;-75
2021/04/03 00:19:11;;;;;;;19.15;4.75;;;;;;;;;;5095369;28;20383;-75
2021/04/03 00:21:37;;;;;;;15.82;4.70;;;;;;;;;;5094947;28;20408;-75
2021/04/03 00:24:02;;;;;;;17.35;4.97;;;;;;;;;;5094852;28;20043;-75
2021/04/03 00:26:28;;;;;;;14.40;4.72;;;;;;;;;;5093622;28;20412;-75
2021/04/03 00:28:53;;;;;;;17.60;4.90;;;;;;;;;;5093279;28;20048;-75
2021/04/03 00:31:20;;;;;;;22.40;5.55;;;;;;;;;;5094335;28;20036;-75
2021/04/03 00:33:46;;;;;;;14.60;4.75;;;;;;;;;;5094326;28;20039;-75
2021/04/03 00:36:12;;;;;;;16.90;5.30;;;;;;;;;;5093722;28;20386;-75
2021/04/03 00:38:38;;;;;;;16.55;5.10;;;;;;;;;;5094208;28;20031;-75
2021/04/03 00:41:03;;;;;;;17.90;6.47;;;;;;;;;;5094322;28;20044;-75
2021/04/03 00:43:29;;;;;;;30.25;6.60;;;;;;;;;;5094662;28;20113;-75
2021/04/03 00:45:54;;;;;;;15.82;5.20;;;;;;;;;;5094435;28;20378;-75
2021/04/03 00:48:20;;;;;;;17.08;5.63;;;;;;;;;;5093396;28;20077;-75
2021/04/03 00:50:48;;;;;;;18.00;5.18;;;;;;;;;;5094482;28;20046;-75
2021/04/03 00:53:18;;;;;;;14.07;4.93;;;;;;;;;;5093769;28;20032;-75
2021/04/03 00:55:51;;;;;;;15.88;5.07;;;;;;;;;;5093779;28;20024;-75
2021/04/03 00:58:22;;;;;;;30.17;5.05;;;;;;;;;;5093960;28;20028;-75
2021/04/03 01:00:49;;;;;;;18.52;5.38;;;;;;;;;;5094257;28;20035;-75
2021/04/03 01:03:17;;;;;;;22.67;5.35;;;;;;;;;;5095516;28;20078;-75
2021/04/03 01:05:43;;;;;;;17.58;5.22;;;;;;;;;;5097203;28;20028;-75
2021/04/03 01:08:11;;;;;;;18.25;6.18;;;;;;;;;;5099504;28;20040;-75
2021/04/03 01:10:41;;;;;;;16.30;5.50;;;;;;;;;;5099753;28;20039;-75
2021/04/03 01:13:53;;;;;;;20.42;4.63;;;;;;;;;;5099720;28;20035;-75
2021/04/03 01:16:29;;;;;;;16.77;4.10;;;;;;;;;;5099109;28;20032;-75
2021/04/03 01:19:10;;;;;;;20.25;5.22;;;;;;;;;;5097917;28;20545;-75
2021/04/03 01:22:13;;;;;;;16.88;5.45;;;;;;;;;;5099976;28;20125;-75
2021/04/03 01:25:07;;;;;;;18.13;5.82;;;;;;;;;;5099496;28;20031;-75
2021/04/03 01:27:33;;;;;;;18.40;4.55;;;;;;;;;;5098667;28;20040;-75
2021/04/03 01:30:06;;;;;;;23.60;5.57;;;;;;;;;;5098937;28;20036;-75
2021/04/03 01:32:52;;;;;;;19.77;4.60;;;;;;;;;;5095327;28;20032;-75
2021/04/03 01:35:25;;;;;;;13.85;4.75;;;;;;;;;;5097233;28;20081;-75
2021/04/03 01:37:58;;;;;;;23.67;5.35;;;;;;;;;;5097287;28;20059;-75
2021/04/03 01:40:26;;;;;;;20.48;5.63;;;;;;;;;;5095604;28;20057;-75
2021/04/03 01:43:00;;;;;;;24.52;5.78;;;;;;;;;;5096610;28;20201;-75
2021/04/03 01:45:27;;;;;;;19.80;5.40;;;;;;;;;;5097811;28;20028;-75
2021/04/03 01:47:56;;;;;;;31.30;7.50;;;;;;;;;;5097588;28;20038;-75
2021/04/03 01:50:24;;;;;;;22.30;6.10;;;;;;;;;;5097840;28;20040;-75
2021/04/03 01:52:51;;;;;;;25.60;5.22;;;;;;;;;;5097296;28;20032;-75
2021/04/03 01:55:17;;;;;;;17.80;4.30;;;;;;;;;;5098364;28;20089;-75
2021/04/03 01:57:50;;;;;;;29.13;6.20;;;;;;;;;;5096919;28;20027;-75
2021/04/03 02:00:20;;;;;;;20.70;4.63;;;;;;;;;;5097289;28;20089;-75
2021/04/03 02:03:04;;;;;;;20.00;4.78;;;;;;;;;;5096751;28;20085;-75
2021/04/03 02:05:30;;;;;;;16.83;4.40;;;;;;;;;;5098261;28;20028;-75
2021/04/03 02:08:15;;;;;;;20.75;5.20;;;;;;;;;;5096884;28;20093;-75
2021/04/03 02:10:46;;;;;;;20.92;3.88;;;;;;;;;;5096845;28;20043;-75
2021/04/03 02:13:14;;;;;;;19.05;5.22;;;;;;;;;;5097667;28;20032;-75
2021/04/03 02:15:47;;;;;;;21.25;4.47;;;;;;;;;;5080287;28;20032;-75
2021/04/03 02:18:15;;;;;;;15.38;4.30;;;;;;;;;;5096831;28;20068;-75
2021/04/03 02:20:42;;;;;;;21.15;4.15;;;;;;;;;;5098511;28;20091;-75
2021/04/03 02:23:08;;;;;;;13.00;4.13;;;;;;;;;;5098486;28;20077;-75
2021/04/03 02:25:34;;;;;;;23.60;4.55;;;;;;;;;;5097908;28;20111;-75
2021/04/03 02:28:01;;;;;;;23.52;4.18;;;;;;;;;;5097713;28;20536;-75
2021/04/03 02:30:35;;;;;;;17.63;3.92;;;;;;;;;;5097677;28;20036;-75
2021/04/03 02:33:02;;;;;;;26.50;4.95;;;;;;;;;;5097913;28;20450;-75
2021/04/03 02:35:29;;;;;;;18.75;4.53;;;;;;;;;;5098545;28;20046;-75
2021/04/03 02:38:00;;;;;;;21.45;5.03;;;;;;;;;;5097641;28;20032;-75
2021/04/03 02:40:31;;;;;;;24.42;5.00;;;;;;;;;;5097805;28;20074;-75
2021/04/03 02:43:13;;;;;;;21.52;4.50;;;;;;;;;;5098372;28;20055;-75
2021/04/03 02:45:46;;;;;;;27.90;5.53;;;;;;;;;;5098200;28;20024;-75
2021/04/03 02:48:18;;;;;;;23.05;5.45;;;;;;;;;;5097715;28;20032;-75
2021/04/03 02:50:51;;;;;;;18.35;4.60;;;;;;;;;;5097010;28;20028;-75
2021/04/03 02:53:20;;;;;;;15.63;3.72;;;;;;;;;;5098066;28;20028;-75
2021/04/03 02:55:53;;;;;;;13.02;3.63;;;;;;;;;;5098351;28;20165;-75
2021/04/03 02:58:22;;;;;;;18.52;4.10;;;;;;;;;;5097034;28;20090;-75
2021/04/03 03:00:53;;;;;;;24.20;4.43;;;;;;;;;;5097657;28;20035;-75
2021/04/03 03:03:21;;;;;;;20.45;4.78;;;;;;;;;;5080648;28;20569;-75
2021/04/03 03:05:48;;;;;;;31.10;5.72;;;;;;;;;;5097445;28;20035;-75
2021/04/03 03:08:15;;;;;;;29.42;5.10;;;;;;;;;;5097961;28;20044;-75
2021/04/03 03:10:45;;;;;;;25.50;4.53;;;;;;;;;;5097908;28;20047;-75
2021/04/03 03:13:11;;;;;;;21.52;4.43;;;;;;;;;;5097080;28;20036;-74
2021/04/03 03:15:38;;;;;;;15.73;3.28;;;;;;;;;;5096136;28;20486;-75
2021/04/03 03:18:03;;;;;;;18.73;4.22;;;;;;;;;;5096881;28;20036;-75
2021/04/03 03:20:33;;;;;;;18.60;4.03;;;;;;;;;;5097977;28;20514;-75
2021/04/03 03:23:01;;;;;;;17.48;5.15;;;;;;;;;;5096759;28;20028;-75
2021/04/03 03:25:29;;;;;;;20.65;4.15;;;;;;;;;;5079544;28;20454;-75
2021/04/03 03:27:57;;;;;;;19.33;4.65;;;;;;;;;;5094305;28;20077;-74
2021/04/03 03:30:25;;;;;;;18.92;5.22;;;;;;;;;;5093500;28;20040;-74
2021/04/03 03:32:54;;;;;;;17.95;4.28;;;;;;;;;;5093891;28;20034;-75
2021/04/03 03:35:21;;;;;;;21.02;4.20;;;;;;;;;;5095534;28;20082;-75
2021/04/03 03:37:51;;;;;;;15.95;3.67;;;;;;;;;;5094561;28;20110;-75
2021/04/03 03:40:18;;;;;;;20.40;4.18;;;;;;;;;;5093615;28;20039;-75
2021/04/03 03:42:44;;;;;;;19.02;4.10;;;;;;;;;;5095468;28;20036;-75
2021/04/03 03:45:14;;;;;;;17.75;3.75;;;;;;;;;;5094036;28;20028;-75
2021/04/03 03:47:43;;;;;;;22.27;4.10;;;;;;;;;;5092618;28;20033;-76
2021/04/03 03:50:11;;;;;;;23.65;4.43;;;;;;;;;;5094500;28;20054;-76
2021/04/03 03:52:39;;;;;;;15.15;3.38;;;;;;;;;;5076501;28;20042;-76
2021/04/03 03:55:07;;;;;;;25.10;4.55;;;;;;;;;;5093224;28;20343;-76
2021/04/03 03:57:35;;;;;;;15.93;4.18;;;;;;;;;;5092470;28;20036;-76
2021/04/03 04:00:03;;;;;;;12.32;3.75;;;;;;;;;;5093655;28;20056;-76
2021/04/03 04:02:29;;;;;;;29.67;5.50;;;;;;;;;;5093846;28;20117;-76
2021/04/03 04:04:55;;;;;;;14.82;3.50;;;;;;;;;;5093930;28;20058;-75
2021/04/03 04:07:21;;;;;;;29.80;4.70;;;;;;;;;;5093779;28;20036;-76
2021/04/03 04:09:48;;;;;;;21.60;4.35;;;;;;;;;;5092706;28;20100;-76
2021/04/03 04:12:14;;;;;;;23.13;5.15;;;;;;;;;;5092679;28;20358;-76
2021/04/03 04:14:49;;;;;;;25.75;4.15;;;;;;;;;;5092344;28;20020;-76
2021/04/03 04:17:15;;;;;;;18.00;3.78;;;;;;;;;;5092512;28;20036;-76
2021/04/03 04:19:43;;;;;;;25.70;5.28;;;;;;;;;;5093826;28;20028;-75
2021/04/03 04:22:09;;;;;;;23.90;4.90;;;;;;;;;;5093680;28;20386;-76
2021/04/03 04:24:34;;;;;;;29.85;5.88;;;;;;;;;;5093853;28;20032;-76
2021/04/03 04:27:04;;;;;;;22.52;5.45;;;;;;;;;;5092400;28;20554;-76
2021/04/03 04:29:32;;;;;;;21.27;3.42;;;;;;;;;;5091869;28;20050;-76
2021/04/03 04:32:02;;;;;;;21.90;5.43;;;;;;;;;;5093754;28;20074;-76
2021/04/03 04:34:31;;;;;;;20.02;4.38;;;;;;;;;;5092325;28;20043;-76
2021/04/03 04:37:00;;;;;;;21.90;5.05;;;;;;;;;;5092231;28;20032;-76
2021/04/03 04:39:33;;;;;;;22.17;4.18;;;;;;;;;;5091532;28;20028;-76
2021/04/03 04:42:00;;;;;;;27.23;5.47;;;;;;;;;;5091489;28;20048;-76
2021/04/03 04:44:26;;;;;;;24.75;4.13;;;;;;;;;;5092022;28;20119;-76
2021/04/03 04:46:52;;;;;;;24.42;4.95;;;;;;;;;;5093241;28;20062;-76
2021/04/03 04:49:18;;;;;;;23.80;4.50;;;;;;;;;;5092084;28;20056;-76
2021/04/03 04:51:46;;;;;;;19.05;4.68;;;;;;;;;;5093329;28;20042;-76
2021/04/03 04:54:22;;;;;;;23.65;3.83;;;;;;;;;;5092201;28;20081;-76
2021/04/03 04:56:50;;;;;;;21.67;5.10;;;;;;;;;;5092588;28;20032;-76
2021/04/03 04:59:22;;;;;;;19.15;5.07;;;;;;;;;;5093012;28;20028;-76
2021/04/03 05:01:58;;;;;;;18.52;4.72;;;;;;;;;;5091832;28;20032;-76
2021/04/03 05:04:23;;;;;;;23.00;4.50;;;;;;;;;;5091577;28;20130;-76
2021/04/03 05:06:49;;;;;;;19.60;4.95;;;;;;;;;;5091786;28;20067;-75
2021/04/03 05:09:14;;;;;;;21.88;4.75;;;;;;;;;;5091926;28;20529;-76
2021/04/03 05:11:40;;;;;;;21.77;5.70;;;;;;;;;;5093345;28;20371;-76
2021/04/03 05:14:06;;;;;;;26.08;4.60;;;;;;;;;;5092937;28;20086;-76
2021/04/03 05:16:31;;;;;;;24.40;4.28;;;;;;;;;;5090278;28;20016;-76
2021/04/03 05:18:57;;;;;;;25.15;6.22;;;;;;;;;;5092738;28;20466;-76
2021/04/03 05:21:22;;;;;;;14.80;4.55;;;;;;;;;;5093056;28;20028;-76
2021/04/03 05:23:47;;;;;;;17.77;3.75;;;;;;;;;;5093101;28;20055;-76
2021/04/03 05:26:13;;;;;;;25.50;5.15;;;;;;;;;;5093057;28;20115;-76
2021/04/03 05:28:38;;;;;;;21.10;4.70;;;;;;;;;;5091411;28;20051;-76
2021/04/03 05:31:04;;;;;;;26.20;5.60;;;;;;;;;;5093531;28;20032;-77
2021/04/03 05:33:29;;;;;;;20.65;4.43;;;;;;;;;;5095146;28;20044;-78
2021/04/03 05:35:54;;;;;;;22.77;4.30;;;;;;;;;;5085232;28;20028;-74
2021/04/03 05:38:20;;;;;;;20.60;4.63;;;;;;;;;;5092697;28;20099;-74
2021/04/03 05:40:45;;;;;;;22.30;4.70;;;;;;;;;;5090819;28;20517;-74
2021/04/03 05:43:12;;;;;;;26.73;5.20;;;;;;;;;;5092493;28;20107;-74
2021/04/03 05:45:38;;;;;;;18.88;4.95;;;;;;;;;;5092834;28;20118;-75
2021/04/03 05:48:05;;;;;;;24.35;6.25;;;;;;;;;;5091295;28;20032;-74
2021/04/03 05:50:32;;;;;;;24.23;4.70;;;;;;;;;;5074252;28;20032;-74
2021/04/03 05:52:58;;;;;;;23.00;4.53;;;;;;;;;;5096227;28;20036;-74
2021/04/03 05:55:25;;;;;;;20.13;5.72;;;;;;;;;;5095341;28;20047;-74
2021/04/03 05:57:51;;;;;;;33.88;6.32;;;;;;;;;;5096305;28;20036;-74
2021/04/03 06:00:17;;;;;;;25.10;5.38;;;;;;;;;;5096407;28;20036;-74
2021/04/03 06:02:42;;;;;;;28.77;5.32;;;;;;;;;;5096251;28;20097;-74
2021/04/03 06:05:09;;;;;;;19.58;5.53;;;;;;;;;;5095933;28;20028;-74
2021/04/03 06:07:34;;;;;;;28.50;5.82;;;;;;;;;;5094634;28;20485;-75
2021/04/03 06:10:02;;;;;;;25.20;4.75;;;;;;;;;;5095165;28;20125;-75
2021/04/03 06:12:41;;;;;;;28.85;5.53;;;;;;;;;;5095346;28;20040;-74
2021/04/03 06:15:07;;;;;;;29.05;6.13;;;;;;;;;;5096258;28;20046;-74
2021/04/03 06:17:33;;;;;;;24.52;5.38;;;;;;;;;;5096016;28;20035;-74
2021/04/03 06:19:59;;;;;;;31.38;5.60;;;;;;;;;;5094662;28;20377;-74
2021/04/03 06:22:24;;;;;;;30.38;6.47;;;;;;;;;;5096161;28;20061;-75
2021/04/03 06:25:03;;;;;;;30.65;6.38;;;;;;;;;;5095439;28;20056;-74
2021/04/03 06:27:28;;;;;;;29.67;8.27;;;;;;;;;;5095556;28;20089;-74
2021/04/03 06:30:36;;;;;;;27.15;7.97;;;;;;;;;;5094392;28;20051;-74
2021/04/03 06:33:19;;;;;;;28.38;8.10;;;;;;;;;;5095676;28;20470;-74
2021/04/03 06:36:03;;;;;;;40.05;9.27;;;;;;;;;;5094263;28;20028;-75
2021/04/03 06:38:29;;;;;;;29.50;8.20;;;;;;;;;;5094928;28;20039;-76
2021/04/03 06:41:15;;;;;;;24.25;7.53;;;;;;;;;;5075552;28;20039;-75
2021/04/03 06:43:40;;;;;;;28.05;7.60;;;;;;;;;;5075566;28;20494;-74
2021/04/03 06:46:23;;;;;;;31.38;8.95;;;;;;;;;;5075450;28;20043;-75
2021/04/03 06:48:53;;;;;;;24.05;7.53;;;;;;;;;;5075122;28;20032;-75
2021/04/03 06:51:22;;;;;;;25.45;9.40;;;;;;;;;;5075198;28;20036;-75
2021/04/03 06:53:49;;;;;;;34.08;8.65;;;;;;;;;;5073862;28;20028;-75
2021/04/03 06:56:19;;;;;;;25.30;7.65;;;;;;;;;;5090885;28;20103;-76
2021/04/03 06:58:46;;;;;;;30.10;7.75;;;;;;;;;;5074627;28;20033;-75
2021/04/03 07:01:14;;;;;;;21.67;7.25;;;;;;;;;;5074901;28;20387;-74
2021/04/03 07:03:43;;;;;;;35.13;8.52;;;;;;;;;;5074051;28;20032;-75
2021/04/03 07:06:10;;;;;;;24.77;7.60;;;;;;;;;;5075070;28;20032;-76
2021/04/03 07:08:39;;;;;;;21.98;7.18;;;;;;;;;;5075567;28;20136;-78
2021/04/03 07:11:07;;;;;;;23.85;6.55;;;;;;;;;;5095488;28;20089;-78
2021/04/03 07:13:34;;;;;;;26.52;8.70;;;;;;;;;;5096654;28;20047;-77
2021/04/03 07:16:03;;;;;;;26.45;7.40;;;;;;;;;;5077177;28;20028;-77
2021/04/03 07:18:29;;;;;;;21.05;8.13;;;;;;;;;;5095188;28;20068;-77
2021/04/03 07:20:55;;;;;;;20.85;6.97;;;;;;;;;;5094742;28;20039;-76
2021/04/03 07:23:21;;;;;;;26.95;8.48;;;;;;;;;;5094666;28;20416;-75
2021/04/03 07:25:47;;;;;;;24.42;7.68;;;;;;;;;;5092446;28;20490;-76
2021/04/03 07:28:15;;;;;;;29.58;8.20;;;;;;;;;;5094279;28;20048;-76
2021/04/03 07:30:43;;;;;;;24.77;8.18;;;;;;;;;;5093526;28;20474;-75
2021/04/03 07:33:16;;;;;;;29.67;9.18;;;;;;;;;;5094745;28;20050;-77
2021/04/03 07:35:44;;;;;;;29.95;7.72;;;;;;;;;;5074446;28;20032;-76
2021/04/03 07:38:14;;;;;;;37.55;8.32;;;;;;;;;;5074545;28;20032;-76
2021/04/03 07:40:45;;;;;;;37.40;8.80;;;;;;;;;;5074530;28;20494;-75
2021/04/03 07:43:29;;;;;;;32.15;8.15;;;;;;;;;;5092955;28;20040;-76
2021/04/03 07:45:55;;;;;;;33.60;7.50;;;;;;;;;;5093126;28;20430;-76
2021/04/03 07:48:39;;;;;;;31.83;8.13;;;;;;;;;;5094353;28;20038;-76
2021/04/03 07:51:07;;;;;;;21.92;6.50;;;;;;;;;;5094336;28;20140;-76
2021/04/03 07:53:38;;;;;;;32.55;7.47;;;;;;;;;;5094440;28;20051;-76
2021/04/03 07:56:05;;;;;;;24.88;8.07;;;;;;;;;;5094559;28;20028;-76
2021/04/03 07:58:32;;;;;;;28.42;7.63;;;;;;;;;;5093965;28;20051;-76
2021/04/03 08:01:06;;;;;;;24.10;6.57;;;;;;;;;;5092880;28;20108;-76
2021/04/03 08:03:33;;;;;;;23.60;6.75;;;;;;;;;;5094151;28;20038;-77
2021/04/03 08:06:04;;;;;;;29.25;7.95;;;;;;;;;;5094202;28;20516;-76
2021/04/03 08:08:32;;;;;;;26.60;6.40;;;;;;;;;;5093986;28;20040;-75
2021/04/03 08:11:07;;;;;;;22.13;5.90;;;;;;;;;;5093642;28;20031;-75
2021/04/03 08:13:36;;;;;;;25.00;6.53;;;;;;;;;;5093678;28;20151;-75
2021/04/03 08:16:05;;;;;;;20.67;6.55;;;;;;;;;;5092410;28;20110;-75
2021/04/03 08:18:30;;;;;;;22.02;7.30;;;;;;;;;;5093913;28;20039;-75
2021/04/03 08:20:56;;;;;;;27.05;5.95;;;;;;;;;;5092251;28;20466;-75
2021/04/03 08:23:40;;;;;;;26.38;6.78;;;;;;;;;;5092529;28;20047;-74
2021/04/03 08:26:08;;;;;;;23.75;7.30;;;;;;;;;;5093695;28;20036;-74
2021/04/03 08:28:33;;;;;;;25.83;7.15;;;;;;;;;;5093262;28;20047;-73
2021/04/03 08:31:16;;;;;;;24.55;6.68;;;;;;;;;;5093694;28;20435;-74
2021/04/03 08:33:43;;;;;;;27.77;6.47;;;;;;;;;;5093665;28;20036;-76
2021/04/03 08:36:14;;;;;;;15.30;6.07;;;;;;;;;;5092243;28;20024;-74
2021/04/03 08:38:43;;;;;;;28.15;6.18;;;;;;;;;;5093037;28;20075;-75
2021/04/03 08:41:09;;;;;;;20.40;6.38;;;;;;;;;;5092202;28;20032;-73
2021/04/03 08:43:35;;;;;;;25.35;7.00;;;;;;;;;;5092454;28;20031;-74
2021/04/03 08:46:08;;;;;;;19.90;5.97;;;;;;;;;;5093218;28;20032;-75
2021/04/03 08:48:35;;;;;;;22.02;6.50;;;;;;;;;;5092139;28;20032;-74
2021/04/03 08:51:01;;;;;;;20.52;6.78;;;;;;;;;;5091687;28;20490;-74
2021/04/03 08:53:36;;;;;;;18.48;8.40;;;;;;;;;;5090916;28;20040;-73
2021/04/03 08:56:01;;;;;;;20.13;5.68;;;;;;;;;;5093333;28;20162;-74
2021/04/03 08:58:27;;;;;;;21.83;5.90;;;;;;;;;;5093185;28;20126;-73
2021/04/03 09:00:52;;;;;;;32.03;6.25;;;;;;;;;;5093119;28;20040;-73
2021/04/03 09:03:18;;;;;;;23.35;7.20;;;;;;;;;;5091891;28;20365;-75
2021/04/03 09:05:49;;;;;;;22.85;6.05;;;;;;;;;;5093130;28;20035;-74
2021/04/03 09:08:19;;;;;;;19.10;6.28;;;;;;;;;;5093054;28;20035;-73
2021/04/03 09:11:01;;;;;;;21.58;6.22;;;;;;;;;;5092328;28;20062;-74
2021/04/03 09:13:43;;;;;;;15.52;5.78;;;;;;;;;;5093549;28;20417;-75
2021/04/03 09:16:14;;;;;;;15.65;5.47;;;;;;;;;;5079723;28;20086;-78
2021/04/03 09:18:41;;;;;;;18.75;4.18;;;;;;;;;;5091670;28;20072;-73
2021/04/03 09:21:07;;;;;;;22.05;5.25;;;;;;;;;;5092285;28;20395;-76
2021/04/03 09:23:42;;;;;;;15.40;4.32;;;;;;;;;;5093122;28;20032;-73
2021/04/03 09:26:07;;;;;;;19.55;6.10;;;;;;;;;;5093256;28;20110;-75
2021/04/03 09:28:38;;;;;;;17.30;5.72;;;;;;;;;;5096858;28;20465;-74
2021/04/03 09:31:05;;;;;;;14.55;5.20;;;;;;;;;;5097140;28;20028;-73
2021/04/03 09:33:30;;;;;;;15.05;5.20;;;;;;;;;;5095849;28;20050;-74
2021/04/03 09:36:10;;;;;;;14.20;5.57;;;;;;;;;;5096402;28;20474;-74
2021/04/03 09:38:39;;;;;;;19.15;5.40;;;;;;;;;;5096940;28;20032;-74
2021/04/03 09:41:19;;;;;;;13.15;4.80;;;;;;;;;;5095277;28;20059;-74
2021/04/03 09:43:45;;;;;;;12.15;4.28;;;;;;;;;;5093561;28;20051;-74
2021/04/03 09:46:10;;;;;;;12.98;5.07;;;;;;;;;;5084785;28;20029;-74
2021/04/03 09:48:36;;;;;;;15.25;5.05;;;;;;;;;;5076397;28;20040;-74
2021/04/03 09:51:07;;;;;;;18.30;5.22;;;;;;;;;;5076540;28;20040;-73
2021/04/03 09:53:33;;;;;;;17.52;5.55;;;;;;;;;;5076476;28;20402;-74
2021/04/03 09:55:58;;;;;;;18.60;4.95;;;;;;;;;;5075767;28;20031;-74
2021/04/03 09:58:24;;;;;;;16.23;5.10;;;;;;;;;;5076010;28;20786;-74
2021/04/03 10:00:50;;;;;;;16.02;4.65;;;;;;;;;;5075011;28;20055;-74
2021/04/03 10:03:16;;;;;;;13.98;4.95;;;;;;;;;;5076081;28;20466;-75
2021/04/03 10:05:41;;;;;;;11.57;4.35;;;;;;;;;;5075848;28;20499;-75
2021/04/03 10:08:06;;;;;;;12.38;4.63;;;;;;;;;;5074635;28;20042;-74
2021/04/03 10:10:32;;;;;;;12.85;4.93;;;;;;;;;;5076407;28;20048;-74
2021/04/03 10:12:58;;;;;;;12.15;4.40;;;;;;;;;;5089555;28;20032;-74
2021/04/03 10:15:23;;;;;;;13.90;4.97;;;;;;;;;;5087534;28;20024;-74
2021/04/03 10:17:49;;;;;;;14.95;4.53;;;;;;;;;;5096066;28;20028;-74
2021/04/03 10:20:15;;;;;;;9.48;3.58;;;;;;;;;;5096156;28;20111;-76
2021/04/03 10:22:41;;;;;;;13.05;4.43;;;;;;;;;;5096723;28;20052;-75
2021/04/03 10:25:08;;;;;;;12.10;4.60;;;;;;;;;;5096360;28;20043;-75
2021/04/03 10:27:34;;;;;;;11.10;4.97;;;;;;;;;;5096048;28;20028;-75
2021/04/03 10:30:00;;;;;;;11.95;4.65;;;;;;;;;;5094982;28;20494;-76
2021/04/03 10:32:25;;;;;;;11.25;4.53;;;;;;;;;;5093768;28;20039;-73
2021/04/03 10:34:51;;;;;;;12.00;4.15;;;;;;;;;;5093512;28;20039;-76
2021/04/03 10:37:16;;;;;;;10.48;3.85;;;;;;;;;;5094887;28;20118;-75
2021/04/03 10:39:42;;;;;;;8.73;3.90;;;;;;;;;;5094988;28;20059;-76
2021/04/03 10:42:07;;;;;;;10.15;3.95;;;;;;;;;;5095590;28;20032;-76
2021/04/03 10:44:33;;;;;;;13.10;4.30;;;;;;;;;;5096120;28;20032;-75
2021/04/03 10:46:59;;;;;;;8.13;3.83;;;;;;;;;;5098925;28;20040;-79
2021/04/03 10:49:25;;;;;;;10.32;3.67;;;;;;;;;;5098694;28;20036;-78
2021/04/03 10:51:51;;;;;;;10.82;3.80;;;;;;;;;;5098551;28;20064;-75
2021/04/03 10:54:19;;;;;;;10.30;3.33;;;;;;;;;;5094929;28;20040;-77
2021/04/03 10:56:45;;;;;;;8.38;3.50;;;;;;;;;;5096482;28;20059;-76
2021/04/03 10:59:11;;;;;;;9.45;3.38;;;;;;;;;;5095671;28;20032;-76
2021/04/03 11:01:36;;;;;;;10.05;3.45;;;;;;;;;;5100648;28;20065;-78
2021/04/03 11:04:02;;;;;;;9.57;3.17;;;;;;;;;;5094894;28;20110;-77
2021/04/03 11:06:27;;;;;;;6.57;2.78;;;;;;;;;;5095988;28;20039;-76
2021/04/03 11:08:52;;;;;;;6.50;2.97;;;;;;;;;;5094808;28;20024;-77
2021/04/03 11:11:20;;;;;;;7.75;3.17;;;;;;;;;;5100121;28;20036;-77
2021/04/03 11:13:46;;;;;;;6.35;2.63;;;;;;;;;;5096958;28;20028;-79
2021/04/03 11:16:11;;;;;;;9.82;2.88;;;;;;;;;;5091830;28;20034;-78
2021/04/03 11:18:37;;;;;;;7.57;2.95;;;;;;;;;;5089287;28;20058;-81
2021/04/03 11:21:02;;;;;;;11.70;2.85;;;;;;;;;;5081743;28;20370;-77
2021/04/03 11:23:30;;;;;;;7.43;2.58;;;;;;;;;;5082231;28;20127;-79
2021/04/03 11:25:56;;;;;;;6.20;2.75;;;;;;;;;;5081168;28;20037;-83
2021/04/03 11:28:22;;;;;;;8.60;2.60;;;;;;;;;;5078406;28;20055;-79
2021/04/03 11:30:48;;;;;;;8.57;3.58;;;;;;;;;;5077877;28;20033;-79
2021/04/03 11:33:14;;;;;;;6.20;2.38;;;;;;;;;;5063546;28;20055;-81
2021/04/03 11:35:39;;;;;;;6.60;2.95;;;;;;;;;;5065670;28;20024;-81
2021/04/03 11:38:05;;;;;;;6.30;2.58;;;;;;;;;;5059888;28;20098;-80
2021/04/03 11:40:30;;;;;;;6.82;2.33;;;;;;;;;;5078548;28;20094;-81
2021/04/03 11:42:56;;;;;;;5.15;2.05;;;;;;;;;;5090546;28;20110;-79
2021/04/03 11:45:23;;;;;;;9.75;2.35;;;;;;;;;;5117545;28;20032;-77
2021/04/03 11:47:49;;;;;;;5.63;2.50;;;;;;;;;;5122192;28;20036;-77
2021/04/03 11:50:15;;;;;;;5.93;2.53;;;;;;;;;;5120468;28;20031;-79
2021/04/03 11:52:40;;;;;;;10.52;2.53;;;;;;;;;;5124001;28;20038;-82
2021/04/03 11:55:08;;;;;;;10.05;3.05;;;;;;;;;;5121369;28;20104;-80
2021/04/03 11:57:35;;;;;;;10.80;3.42;;;;;;;;;;5123929;28;20038;-82
2021/04/03 12:00:00;;;;;;;8.20;3.05;;;;;;;;;;5120513;28;20435;-81
2021/04/03 12:02:26;;;;;;;8.65;3.13;;;;;;;;;;5120501;28;20036;-80
2021/04/03 12:04:51;;;;;;;9.18;3.10;;;;;;;;;;5122153;28;20043;-83
2021/04/03 12:07:16;;;;;;;13.45;3.65;;;;;;;;;;5118863;28;20408;-80
2021/04/03 12:09:42;;;;;;;7.32;2.88;;;;;;;;;;5119028;28;20040;-83
2021/04/03 12:12:08;;;;;;;4.00;2.35;;;;;;;;;;5117431;28;20032;-84
2021/04/03 12:14:34;;;;;;;7.07;2.72;;;;;;;;;;5098667;28;20031;-77
2021/04/03 12:16:59;;;;;;;6.35;2.70;;;;;;;;;;5096588;28;20036;-78
2021/04/03 12:19:25;;;;;;;7.65;3.00;;;;;;;;;;5094276;28;20418;-75
2021/04/03 12:21:52;;;;;;;8.80;2.65;;;;;;;;;;5092204;28;20036;-74
2021/04/03 12:24:17;;;;;;;10.88;3.50;;;;;;;;;;5093851;28;20047;-75
2021/04/03 12:26:43;;;;;;;13.63;3.50;;;;;;;;;;5093553;28;20126;-75
2021/04/03 12:29:08;;;;;;;10.68;2.97;;;;;;;;;;5093285;28;20043;-75
2021/04/03 12:31:34;;;;;;;9.57;3.40;;;;;;;;;;5075500;28;20518;-74
2021/04/03 12:33:59;;;;;;;9.93;3.45;;;;;;;;;;5093613;28;20115;-74
2021/04/03 12:36:24;;;;;;;11.07;3.63;;;;;;;;;;5093256;28;20036;-74
2021/04/03 12:38:50;;;;;;;8.45;3.17;;;;;;;;;;5093383;28;20035;-74
2021/04/03 12:41:16;;;;;;;9.75;3.30;;;;;;;;;;5092381;28;20032;-74
2021/04/03 12:43:41;;;;;;;8.98;3.28;;;;;;;;;;5093284;28;20073;-74
2021/04/03 12:46:08;;;;;;;7.53;2.63;;;;;;;;;;5092156;28;20533;-74
2021/04/03 12:48:33;;;;;;;7.57;2.38;;;;;;;;;;5093321;28;20474;-74
2021/04/03 12:51:00;;;;;;;8.45;3.20;;;;;;;;;;5093208;28;20066;-74
2021/04/03 12:53:26;;;;;;;10.88;3.20;;;;;;;;;;5093333;28;20086;-74
2021/04/03 12:55:53;;;;;;;8.90;3.63;;;;;;;;;;5093089;28;20034;-74
2021/04/03 12:58:18;;;;;;;11.60;3.55;;;;;;;;;;5093104;28;20071;-74
2021/04/03 13:00:44;;;;;;;7.82;3.40;;;;;;;;;;5092559;28;20456;-74
2021/04/03 13:03:09;;;;;;;10.95;3.85;;;;;;;;;;5093312;28;20516;-74
2021/04/03 13:05:35;;;;;;;8.45;3.10;;;;;;;;;;5093222;28;20127;-74
2021/04/03 13:08:00;;;;;;;10.57;3.67;;;;;;;;;;5092877;28;20114;-74
2021/04/03 13:10:25;;;;;;;8.75;3.50;;;;;;;;;;5093210;28;20036;-74
2021/04/03 13:12:52;;;;;;;10.90;3.75;;;;;;;;;;5092953;28;20062;-74
2021/04/03 13:15:18;;;;;;;12.93;4.03;;;;;;;;;;5090311;28;20115;-74
2021/04/03 13:17:43;;;;;;;10.63;3.58;;;;;;;;;;5092790;28;20123;-74
2021/04/03 13:20:10;;;;;;;12.57;3.85;;;;;;;;;;5092942;28;20047;-74
2021/04/03 13:22:35;;;;;;;8.45;3.47;;;;;;;;;;5092830;28;20032;-73
2021/04/03 13:25:01;;;;;;;15.02;3.70;;;;;;;;;;5091779;28;20036;-74
2021/04/03 13:27:26;;;;;;;10.57;3.85;;;;;;;;;;5092869;28;20382;-74
2021/04/03 13:29:55;;;;;;;10.32;3.60;;;;;;;;;;5092432;28;20058;-74
2021/04/03 13:32:21;;;;;;;9.48;3.50;;;;;;;;;;5093025;28;20382;-74
2021/04/03 13:34:47;;;;;;;7.97;3.35;;;;;;;;;;5091467;28;20036;-74
2021/04/03 13:37:12;;;;;;;13.05;4.40;;;;;;;;;;5092637;28;20551;-74
2021/04/03 13:39:39;;;;;;;9.00;3.55;;;;;;;;;;5093121;28;20354;-74
2021/04/03 13:42:05;;;;;;;9.70;3.75;;;;;;;;;;5092125;28;20540;-74
2021/04/03 13:44:30;;;;;;;11.07;4.47;;;;;;;;;;5092287;28;20072;-74
2021/04/03 13:46:56;;;;;;;10.30;3.47;;;;;;;;;;5091198;28;20032;-74
2021/04/03 13:49:21;;;;;;;8.60;3.45;;;;;;;;;;5091109;28;20458;-72
2021/04/03 13:51:47;;;;;;;10.30;3.35;;;;;;;;;;5092495;28;20036;-74
2021/04/03 13:54:12;;;;;;;8.05;3.22;;;;;;;;;;5092657;28;20527;-73
2021/04/03 13:56:37;;;;;;;8.88;3.00;;;;;;;;;;5092417;28;20036;-74
2021/04/03 13:59:03;;;;;;;11.52;3.83;;;;;;;;;;5091134;28;20034;-74
2021/04/03 14:01:28;;;;;;;10.13;3.58;;;;;;;;;;5091755;28;20084;-74
2021/04/03 14:03:53;;;;;;;17.45;4.00;;;;;;;;;;5092634;28;20036;-74
2021/04/03 14:06:19;;;;;;;11.75;4.00;;;;;;;;;;5091341;28;20489;-73
2021/04/03 14:08:45;;;;;;;10.82;3.78;;;;;;;;;;5093632;28;20062;-74
2021/04/03 14:11:10;;;;;;;10.52;3.50;;;;;;;;;;5074344;28;20043;-74
2021/04/03 14:13:36;;;;;;;7.53;3.22;;;;;;;;;;5096246;28;20040;-73
2021/04/03 14:16:03;;;;;;;9.35;3.47;;;;;;;;;;5096064;28;20107;-74
2021/04/03 14:18:29;;;;;;;13.57;4.10;;;;;;;;;;5094482;28;20040;-74
2021/04/03 14:20:55;;;;;;;9.60;3.67;;;;;;;;;;5094665;28;20100;-74
2021/04/03 14:23:20;;;;;;;9.85;3.60;;;;;;;;;;5095903;28;20574;-74
2021/04/03 14:25:46;;;;;;;8.07;4.13;;;;;;;;;;5094880;28;20519;-74
2021/04/03 14:28:13;;;;;;;13.10;4.13;;;;;;;;;;5095745;28;20135;-74
2021/04/03 14:30:38;;;;;;;16.63;3.42;;;;;;;;;;5096024;28;20028;-74
2021/04/03 14:33:04;;;;;;;8.90;3.10;;;;;;;;;;5095781;28;20531;-74
2021/04/03 14:35:29;;;;;;;8.65;2.75;;;;;;;;;;5095706;28;20040;-74
2021/04/03 14:37:57;;;;;;;6.72;2.88;;;;;;;;;;5095740;28;20052;-74
2021/04/03 14:40:22;;;;;;;8.13;3.13;;;;;;;;;;5094668;28;20115;-74